sensor_id;sensor_type;location;lat;lon;timestamp;temperature;humidity
59282;DHT22;45054;52.062;10.010;2023-07-13T00:01:36;17.60;99.90
59282;DHT22;45054;52.062;10.010;2023-07-13T00:04:01;17.60;99.90
59282;DHT22;45054;52.062;10.010;2023-07-13T00:06:28;17.70;99.90
59282;DHT22;45054;52.062;10.010;2023-07-13T00:08:54;17.70;99.90
59282;DHT22;45054;52.062;10.010;2023-07-13T00:11:19;17.60;99.90
59282;DHT22;45054;52.062;10.010;2023-07-13T00:13:45;17.70;99.90
59282;DHT22;45054;52.062;10.010;2023-07-13T00:16:11;17.80;99.90
59282;DHT22;45054;52.062;10.010;2023-07-13T00:18:36;17.80;99.90
59282;DHT22;45054;52.062;10.010;2023-07-13T00:21:02;17.80;99.90
59282;DHT22;45054;52.062;10.010;2023-07-13T00:23:29;17.80;99.90
59282;DHT22;45054;52.062;10.010;2023-07-13T00:25:54;17.80;99.90
59282;DHT22;45054;52.062;10.010;2023-07-13T00:28:20;17.80;99.90
59282;DHT22;45054;52.062;10.010;2023-07-13T00:30:45;17.80;99.90
59282;DHT22;45054;52.062;10.010;2023-07-13T00:33:11;17.90;99.90
59282;DHT22;45054;52.062;10.010;2023-07-13T00:35:36;17.80;99.90
59282;DHT22;45054;52.062;10.010;2023-07-13T00:38:02;17.80;99.90
59282;DHT22;45054;52.062;10.010;2023-07-13T00:40:28;17.90;99.90
59282;DHT22;45054;52.062;10.010;2023-07-13T00:42:56;17.80;99.90
59282;DHT22;45054;52.062;10.010;2023-07-13T00:48:05;17.70;99.90
59282;DHT22;45054;52.062;10.010;2023-07-13T00:50:31;17.50;99.90
59282;DHT22;45054;52.062;10.010;2023-07-13T00:52:56;17.50;99.90
59282;DHT22;45054;52.062;10.010;2023-07-13T00:55:22;17.50;99.90
59282;DHT22;45054;52.062;10.010;2023-07-13T00:57:49;17.50;99.90
59282;DHT22;45054;52.062;10.010;2023-07-13T01:00:14;17.60;99.90
59282;DHT22;45054;52.062;10.010;2023-07-13T01:02:42;17.60;99.90
59282;DHT22;45054;52.062;10.010;2023-07-13T01:05:08;17.60;99.90
59282;DHT22;45054;52.062;10.010;2023-07-13T01:07:34;17.50;99.90
59282;DHT22;45054;52.062;10.010;2023-07-13T01:09:59;17.50;99.90
59282;DHT22;45054;52.062;10.010;2023-07-13T01:12:25;17.50;99.90
59282;DHT22;45054;52.062;10.010;2023-07-13T01:14:57;17.40;99.90
59282;DHT22;45054;52.062;10.010;2023-07-13T01:17:23;17.50;99.90
59282;DHT22;45054;52.062;10.010;2023-07-13T01:19:49;17.50;99.90
59282;DHT22;45054;52.062;10.010;2023-07-13T01:22:16;17.50;99.90
59282;DHT22;45054;52.062;10.010;2023-07-13T01:24:43;17.50;99.90
59282;DHT22;45054;52.062;10.010;2023-07-13T01:27:09;17.40;99.90
59282;DHT22;45054;52.062;10.010;2023-07-13T01:29:35;17.20;99.90
59282;DHT22;45054;52.062;10.010;2023-07-13T01:32:01;17.00;99.90
59282;DHT22;45054;52.062;10.010;2023-07-13T01:34:27;17.00;99.90
59282;DHT22;45054;52.062;10.010;2023-07-13T01:36:52;16.90;99.90
59282;DHT22;45054;52.062;10.010;2023-07-13T01:39:19;16.80;99.90
59282;DHT22;45054;52.062;10.010;2023-07-13T01:41:45;16.70;99.90
59282;DHT22;45054;52.062;10.010;2023-07-13T01:44:10;16.60;99.90
59282;DHT22;45054;52.062;10.010;2023-07-13T01:46:36;16.50;99.90
59282;DHT22;45054;52.062;10.010;2023-07-13T01:49:01;16.40;99.90
59282;DHT22;45054;52.062;10.010;2023-07-13T01:51:26;16.50;99.90
59282;DHT22;45054;52.062;10.010;2023-07-13T01:53:52;16.50;99.90
59282;DHT22;45054;52.062;10.010;2023-07-13T01:56:19;16.50;99.90
59282;DHT22;45054;52.062;10.010;2023-07-13T01:58:44;16.60;99.90
59282;DHT22;45054;52.062;10.010;2023-07-13T02:01:10;16.60;99.90
59282;DHT22;45054;52.062;10.010;2023-07-13T02:03:35;16.60;99.90
59282;DHT22;45054;52.062;10.010;2023-07-13T02:06:03;16.70;99.90
59282;DHT22;45054;52.062;10.010;2023-07-13T02:08:30;16.60;99.90
59282;DHT22;45054;52.062;10.010;2023-07-13T02:10:55;16.70;99.90
59282;DHT22;45054;52.062;10.010;2023-07-13T02:13:22;16.60;99.90
59282;DHT22;45054;52.062;10.010;2023-07-13T02:15:49;16.50;99.90
59282;DHT22;45054;52.062;10.010;2023-07-13T02:18:15;16.30;99.90
59282;DHT22;45054;52.062;10.010;2023-07-13T02:20:40;16.20;99.90
59282;DHT22;45054;52.062;10.010;2023-07-13T02:23:06;16.20;99.90
59282;DHT22;45054;52.062;10.010;2023-07-13T02:25:31;16.30;99.90
59282;DHT22;45054;52.062;10.010;2023-07-13T02:27:56;16.40;99.90
59282;DHT22;45054;52.062;10.010;2023-07-13T02:30:23;16.40;99.90
59282;DHT22;45054;52.062;10.010;2023-07-13T02:32:49;16.40;99.90
59282;DHT22;45054;52.062;10.010;2023-07-13T02:35:14;16.30;99.90
59282;DHT22;45054;52.062;10.010;2023-07-13T02:37:40;16.20;99.90
59282;DHT22;45054;52.062;10.010;2023-07-13T02:40:06;16.10;99.90
59282;DHT22;45054;52.062;10.010;2023-07-13T02:42:31;15.90;99.90
59282;DHT22;45054;52.062;10.010;2023-07-13T02:44:57;15.80;99.90
59282;DHT22;45054;52.062;10.010;2023-07-13T02:47:24;15.90;99.90
59282;DHT22;45054;52.062;10.010;2023-07-13T02:49:49;15.90;99.90
59282;DHT22;45054;52.062;10.010;2023-07-13T02:52:15;15.90;99.90
59282;DHT22;45054;52.062;10.010;2023-07-13T02:54:40;16.00;99.90
59282;DHT22;45054;52.062;10.010;2023-07-13T02:57:06;16.00;99.90
59282;DHT22;45054;52.062;10.010;2023-07-13T02:59:31;16.00;99.90
59282;DHT22;45054;52.062;10.010;2023-07-13T03:01:57;16.00;99.90
59282;DHT22;45054;52.062;10.010;2023-07-13T03:04:25;16.00;99.90
59282;DHT22;45054;52.062;10.010;2023-07-13T03:06:51;16.10;99.90
59282;DHT22;45054;52.062;10.010;2023-07-13T03:09:16;16.10;99.90
59282;DHT22;45054;52.062;10.010;2023-07-13T03:11:42;16.10;99.90
59282;DHT22;45054;52.062;10.010;2023-07-13T03:14:08;16.10;99.90
59282;DHT22;45054;52.062;10.010;2023-07-13T03:16:33;16.00;99.90
59282;DHT22;45054;52.062;10.010;2023-07-13T03:18:59;16.00;99.90
59282;DHT22;45054;52.062;10.010;2023-07-13T03:21:25;15.90;99.90
59282;DHT22;45054;52.062;10.010;2023-07-13T03:23:51;15.80;99.90
59282;DHT22;45054;52.062;10.010;2023-07-13T03:26:17;15.70;99.90
59282;DHT22;45054;52.062;10.010;2023-07-13T03:28:43;15.60;99.90
59282;DHT22;45054;52.062;10.010;2023-07-13T03:31:09;15.50;99.90
59282;DHT22;45054;52.062;10.010;2023-07-13T03:33:35;15.20;99.90
59282;DHT22;45054;52.062;10.010;2023-07-13T03:36:01;15.10;99.90
59282;DHT22;45054;52.062;10.010;2023-07-13T03:38:28;15.00;99.90
59282;DHT22;45054;52.062;10.010;2023-07-13T03:40:54;15.10;99.90
59282;DHT22;45054;52.062;10.010;2023-07-13T03:43:19;15.20;99.90
59282;DHT22;45054;52.062;10.010;2023-07-13T03:45:45;15.30;99.90
59282;DHT22;45054;52.062;10.010;2023-07-13T03:48:10;15.40;99.90
59282;DHT22;45054;52.062;10.010;2023-07-13T03:50:36;15.40;99.90
59282;DHT22;45054;52.062;10.010;2023-07-13T03:53:01;15.50;99.90
59282;DHT22;45054;52.062;10.010;2023-07-13T03:55:28;15.50;99.90
59282;DHT22;45054;52.062;10.010;2023-07-13T03:57:54;15.50;99.90
59282;DHT22;45054;52.062;10.010;2023-07-13T04:00:22;15.60;99.90
59282;DHT22;45054;52.062;10.010;2023-07-13T04:02:48;15.60;99.90
59282;DHT22;45054;52.062;10.010;2023-07-13T04:05:13;15.60;99.90
59282;DHT22;45054;52.062;10.010;2023-07-13T04:07:39;15.60;99.90
59282;DHT22;45054;52.062;10.010;2023-07-13T04:10:04;15.70;99.90
59282;DHT22;45054;52.062;10.010;2023-07-13T04:12:31;15.70;99.90
59282;DHT22;45054;52.062;10.010;2023-07-13T04:14:57;15.80;99.90
59282;DHT22;45054;52.062;10.010;2023-07-13T04:17:22;15.80;99.90
59282;DHT22;45054;52.062;10.010;2023-07-13T04:19:48;15.70;99.90
59282;DHT22;45054;52.062;10.010;2023-07-13T04:22:13;15.70;99.90
59282;DHT22;45054;52.062;10.010;2023-07-13T04:24:38;15.60;99.90
59282;DHT22;45054;52.062;10.010;2023-07-13T04:27:04;15.60;99.90
59282;DHT22;45054;52.062;10.010;2023-07-13T04:29:31;15.40;99.90
59282;DHT22;45054;52.062;10.010;2023-07-13T04:31:56;15.50;99.90
59282;DHT22;45054;52.062;10.010;2023-07-13T04:34:22;15.40;99.90
59282;DHT22;45054;52.062;10.010;2023-07-13T04:36:47;15.30;99.90
59282;DHT22;45054;52.062;10.010;2023-07-13T04:39:13;15.30;99.90
59282;DHT22;45054;52.062;10.010;2023-07-13T04:41:38;15.40;99.90
59282;DHT22;45054;52.062;10.010;2023-07-13T04:44:04;15.50;99.90
59282;DHT22;45054;52.062;10.010;2023-07-13T04:46:31;15.50;99.90
59282;DHT22;45054;52.062;10.010;2023-07-13T04:48:56;15.60;99.90
59282;DHT22;45054;52.062;10.010;2023-07-13T04:51:22;15.60;99.90
59282;DHT22;45054;52.062;10.010;2023-07-13T04:53:47;15.80;99.90
59282;DHT22;45054;52.062;10.010;2023-07-13T04:56:12;15.80;99.90
59282;DHT22;45054;52.062;10.010;2023-07-13T04:58:38;15.90;99.90
59282;DHT22;45054;52.062;10.010;2023-07-13T05:01:04;15.90;99.90
59282;DHT22;45054;52.062;10.010;2023-07-13T05:03:31;16.00;99.90
59282;DHT22;45054;52.062;10.010;2023-07-13T05:05:57;16.10;99.90
59282;DHT22;45054;52.062;10.010;2023-07-13T05:08:23;16.10;99.90
59282;DHT22;45054;52.062;10.010;2023-07-13T05:10:49;16.10;99.90
59282;DHT22;45054;52.062;10.010;2023-07-13T05:13:14;16.30;99.90
59282;DHT22;45054;52.062;10.010;2023-07-13T05:15:40;16.40;99.90
59282;DHT22;45054;52.062;10.010;2023-07-13T05:18:05;16.50;99.90
59282;DHT22;45054;52.062;10.010;2023-07-13T05:20:32;16.60;99.90
59282;DHT22;45054;52.062;10.010;2023-07-13T05:22:58;16.60;99.90
59282;DHT22;45054;52.062;10.010;2023-07-13T05:25:23;16.70;99.90
59282;DHT22;45054;52.062;10.010;2023-07-13T05:27:48;16.70;99.90
59282;DHT22;45054;52.062;10.010;2023-07-13T05:30:14;16.70;99.90
59282;DHT22;45054;52.062;10.010;2023-07-13T05:32:39;16.80;99.90
59282;DHT22;45054;52.062;10.010;2023-07-13T05:35:05;16.70;99.90
59282;DHT22;45054;52.062;10.010;2023-07-13T05:37:32;16.80;99.90
59282;DHT22;45054;52.062;10.010;2023-07-13T05:39:58;16.80;99.90
59282;DHT22;45054;52.062;10.010;2023-07-13T05:42:23;17.00;99.90
59282;DHT22;45054;52.062;10.010;2023-07-13T05:44:49;17.00;99.90
59282;DHT22;45054;52.062;10.010;2023-07-13T05:47:14;17.10;99.90
59282;DHT22;45054;52.062;10.010;2023-07-13T05:49:40;17.10;99.90
59282;DHT22;45054;52.062;10.010;2023-07-13T05:52:05;17.10;99.90
59282;DHT22;45054;52.062;10.010;2023-07-13T05:54:32;17.00;99.90
59282;DHT22;45054;52.062;10.010;2023-07-13T05:56:58;17.00;99.90
59282;DHT22;45054;52.062;10.010;2023-07-13T05:59:23;17.00;99.90
59282;DHT22;45054;52.062;10.010;2023-07-13T06:01:48;17.00;99.90
59282;DHT22;45054;52.062;10.010;2023-07-13T06:04:14;17.00;99.90
59282;DHT22;45054;52.062;10.010;2023-07-13T06:06:39;17.00;99.90
59282;DHT22;45054;52.062;10.010;2023-07-13T06:09:05;17.00;99.90
59282;DHT22;45054;52.062;10.010;2023-07-13T06:11:32;17.10;99.90
59282;DHT22;45054;52.062;10.010;2023-07-13T06:13:57;17.10;99.90
59282;DHT22;45054;52.062;10.010;2023-07-13T06:16:23;17.10;99.90
59282;DHT22;45054;52.062;10.010;2023-07-13T06:18:48;17.20;99.90
59282;DHT22;45054;52.062;10.010;2023-07-13T06:21:14;17.20;99.90
59282;DHT22;45054;52.062;10.010;2023-07-13T06:23:40;17.30;99.90
59282;DHT22;45054;52.062;10.010;2023-07-13T06:26:06;17.30;99.90
59282;DHT22;45054;52.062;10.010;2023-07-13T06:28:33;17.40;99.90
59282;DHT22;45054;52.062;10.010;2023-07-13T06:30:59;17.50;99.90
59282;DHT22;45054;52.062;10.010;2023-07-13T06:33:25;17.50;99.90
59282;DHT22;45054;52.062;10.010;2023-07-13T06:35:51;17.60;99.90
59282;DHT22;45054;52.062;10.010;2023-07-13T06:38:16;17.70;99.90
59282;DHT22;45054;52.062;10.010;2023-07-13T06:40:42;17.70;99.90
59282;DHT22;45054;52.062;10.010;2023-07-13T06:43:07;17.80;99.90
59282;DHT22;45054;52.062;10.010;2023-07-13T06:45:39;17.80;99.90
59282;DHT22;45054;52.062;10.010;2023-07-13T06:48:05;17.90;99.90
59282;DHT22;45054;52.062;10.010;2023-07-13T06:50:30;17.90;99.90
59282;DHT22;45054;52.062;10.010;2023-07-13T06:52:56;18.10;99.90
59282;DHT22;45054;52.062;10.010;2023-07-13T06:55:21;18.10;99.90
59282;DHT22;45054;52.062;10.010;2023-07-13T06:57:47;18.00;99.90
59282;DHT22;45054;52.062;10.010;2023-07-13T07:00:13;18.00;99.90
59282;DHT22;45054;52.062;10.010;2023-07-13T07:02:40;18.00;99.90
59282;DHT22;45054;52.062;10.010;2023-07-13T07:05:05;18.10;99.90
59282;DHT22;45054;52.062;10.010;2023-07-13T07:07:31;18.20;99.90
59282;DHT22;45054;52.062;10.010;2023-07-13T07:09:56;18.10;99.90
59282;DHT22;45054;52.062;10.010;2023-07-13T07:12:22;18.20;99.90
59282;DHT22;45054;52.062;10.010;2023-07-13T07:14:47;18.20;99.90
59282;DHT22;45054;52.062;10.010;2023-07-13T07:17:13;18.10;99.90
59282;DHT22;45054;52.062;10.010;2023-07-13T07:19:40;18.10;99.90
59282;DHT22;45054;52.062;10.010;2023-07-13T07:22:05;18.00;99.90
59282;DHT22;45054;52.062;10.010;2023-07-13T07:24:31;18.00;99.90
59282;DHT22;45054;52.062;10.010;2023-07-13T07:26:56;18.00;99.90
59282;DHT22;45054;52.062;10.010;2023-07-13T07:29:22;18.10;99.90
59282;DHT22;45054;52.062;10.010;2023-07-13T07:31:47;18.20;99.90
59282;DHT22;45054;52.062;10.010;2023-07-13T07:34:12;18.30;99.90
59282;DHT22;45054;52.062;10.010;2023-07-13T07:36:39;18.40;99.90
59282;DHT22;45054;52.062;10.010;2023-07-13T07:39:05;18.50;99.90
59282;DHT22;45054;52.062;10.010;2023-07-13T07:41:30;18.50;99.90
59282;DHT22;45054;52.062;10.010;2023-07-13T07:43:56;18.60;99.90
59282;DHT22;45054;52.062;10.010;2023-07-13T07:46:21;18.70;99.90
59282;DHT22;45054;52.062;10.010;2023-07-13T07:48:47;18.60;99.90
59282;DHT22;45054;52.062;10.010;2023-07-13T07:51:12;18.50;99.90
59282;DHT22;45054;52.062;10.010;2023-07-13T07:53:39;18.60;99.90
59282;DHT22;45054;52.062;10.010;2023-07-13T07:56:04;18.70;99.90
59282;DHT22;45054;52.062;10.010;2023-07-13T07:58:30;18.80;99.90
59282;DHT22;45054;52.062;10.010;2023-07-13T08:01:01;18.80;99.90
59282;DHT22;45054;52.062;10.010;2023-07-13T08:03:26;18.90;99.90
59282;DHT22;45054;52.062;10.010;2023-07-13T08:05:52;18.80;99.90
59282;DHT22;45054;52.062;10.010;2023-07-13T08:08:18;18.70;99.90
59282;DHT22;45054;52.062;10.010;2023-07-13T08:10:44;18.70;99.90
59282;DHT22;45054;52.062;10.010;2023-07-13T08:13:10;18.80;99.90
59282;DHT22;45054;52.062;10.010;2023-07-13T08:15:35;18.80;99.90
59282;DHT22;45054;52.062;10.010;2023-07-13T08:18:01;18.80;99.90
59282;DHT22;45054;52.062;10.010;2023-07-13T08:20:27;18.80;99.90
59282;DHT22;45054;52.062;10.010;2023-07-13T08:22:52;18.90;99.90
59282;DHT22;45054;52.062;10.010;2023-07-13T08:25:18;19.00;99.90
59282;DHT22;45054;52.062;10.010;2023-07-13T08:27:44;18.90;99.90
59282;DHT22;45054;52.062;10.010;2023-07-13T08:30:10;19.00;99.90
59282;DHT22;45054;52.062;10.010;2023-07-13T08:32:35;19.00;99.90
59282;DHT22;45054;52.062;10.010;2023-07-13T08:35:01;18.80;99.90
59282;DHT22;45054;52.062;10.010;2023-07-13T08:37:27;18.90;99.90
59282;DHT22;45054;52.062;10.010;2023-07-13T08:39:52;19.00;99.90
59282;DHT22;45054;52.062;10.010;2023-07-13T08:42:21;19.00;99.90
59282;DHT22;45054;52.062;10.010;2023-07-13T08:44:50;19.10;99.90
59282;DHT22;45054;52.062;10.010;2023-07-13T08:47:18;19.10;99.90
59282;DHT22;45054;52.062;10.010;2023-07-13T08:49:46;19.20;99.90
59282;DHT22;45054;52.062;10.010;2023-07-13T08:52:13;19.30;99.90
59282;DHT22;45054;52.062;10.010;2023-07-13T08:54:41;19.20;99.90
59282;DHT22;45054;52.062;10.010;2023-07-13T08:57:10;19.20;99.90
59282;DHT22;45054;52.062;10.010;2023-07-13T08:59:37;19.20;99.90
59282;DHT22;45054;52.062;10.010;2023-07-13T09:02:14;19.20;99.90
59282;DHT22;45054;52.062;10.010;2023-07-13T09:04:42;19.20;99.90
59282;DHT22;45054;52.062;10.010;2023-07-13T09:07:12;19.00;99.90
59282;DHT22;45054;52.062;10.010;2023-07-13T09:09:42;19.10;99.90
59282;DHT22;45054;52.062;10.010;2023-07-13T09:12:13;19.20;99.90
59282;DHT22;45054;52.062;10.010;2023-07-13T09:14:41;19.30;99.90
59282;DHT22;45054;52.062;10.010;2023-07-13T09:17:12;19.40;99.90
59282;DHT22;45054;52.062;10.010;2023-07-13T09:19:37;19.40;99.90
59282;DHT22;45054;52.062;10.010;2023-07-13T09:22:05;19.30;99.90
59282;DHT22;45054;52.062;10.010;2023-07-13T09:24:36;19.40;99.90
59282;DHT22;45054;52.062;10.010;2023-07-13T09:27:01;19.60;99.90
59282;DHT22;45054;52.062;10.010;2023-07-13T09:29:30;19.60;99.90
59282;DHT22;45054;52.062;10.010;2023-07-13T09:31:57;19.60;99.90
59282;DHT22;45054;52.062;10.010;2023-07-13T09:34:25;19.60;99.90
59282;DHT22;45054;52.062;10.010;2023-07-13T09:36:51;19.40;99.90
59282;DHT22;45054;52.062;10.010;2023-07-13T09:39:24;19.40;99.90
59282;DHT22;45054;52.062;10.010;2023-07-13T09:41:53;19.40;99.90
59282;DHT22;45054;52.062;10.010;2023-07-13T09:44:27;19.60;99.90
59282;DHT22;45054;52.062;10.010;2023-07-13T09:46:53;19.70;99.90
59282;DHT22;45054;52.062;10.010;2023-07-13T09:49:22;20.00;99.90
59282;DHT22;45054;52.062;10.010;2023-07-13T09:51:49;20.10;99.90
59282;DHT22;45054;52.062;10.010;2023-07-13T09:54:23;20.10;99.90
59282;DHT22;45054;52.062;10.010;2023-07-13T09:56:50;20.20;99.90
59282;DHT22;45054;52.062;10.010;2023-07-13T09:59:19;20.00;99.90
59282;DHT22;45054;52.062;10.010;2023-07-13T10:01:44;19.90;99.90
59282;DHT22;45054;52.062;10.010;2023-07-13T10:04:10;19.90;99.90
59282;DHT22;45054;52.062;10.010;2023-07-13T10:06:36;19.80;99.90
59282;DHT22;45054;52.062;10.010;2023-07-13T10:09:03;19.60;99.90
59282;DHT22;45054;52.062;10.010;2023-07-13T10:11:34;19.70;99.90
59282;DHT22;45054;52.062;10.010;2023-07-13T10:14:00;19.70;99.90
59282;DHT22;45054;52.062;10.010;2023-07-13T10:16:26;19.80;99.90
59282;DHT22;45054;52.062;10.010;2023-07-13T10:18:53;19.90;99.90
59282;DHT22;45054;52.062;10.010;2023-07-13T10:21:20;20.00;99.90
59282;DHT22;45054;52.062;10.010;2023-07-13T10:23:47;20.10;99.90
59282;DHT22;45054;52.062;10.010;2023-07-13T10:26:19;20.10;99.90
59282;DHT22;45054;52.062;10.010;2023-07-13T10:28:47;20.10;99.90
59282;DHT22;45054;52.062;10.010;2023-07-13T10:31:15;20.30;99.90
59282;DHT22;45054;52.062;10.010;2023-07-13T10:33:41;20.50;99.90
59282;DHT22;45054;52.062;10.010;2023-07-13T10:36:11;20.70;99.90
59282;DHT22;45054;52.062;10.010;2023-07-13T10:38:38;20.80;99.90
59282;DHT22;45054;52.062;10.010;2023-07-13T10:41:05;20.80;99.90
59282;DHT22;45054;52.062;10.010;2023-07-13T10:43:33;20.70;99.90
59282;DHT22;45054;52.062;10.010;2023-07-13T10:45:59;20.60;99.90
59282;DHT22;45054;52.062;10.010;2023-07-13T10:48:25;20.60;99.90
59282;DHT22;45054;52.062;10.010;2023-07-13T10:50:51;20.60;99.90
59282;DHT22;45054;52.062;10.010;2023-07-13T10:53:18;20.60;99.90
59282;DHT22;45054;52.062;10.010;2023-07-13T10:55:54;20.70;99.90
59282;DHT22;45054;52.062;10.010;2023-07-13T10:58:20;20.80;99.90
59282;DHT22;45054;52.062;10.010;2023-07-13T11:00:48;20.80;99.90
59282;DHT22;45054;52.062;10.010;2023-07-13T11:03:15;20.70;99.90
59282;DHT22;45054;52.062;10.010;2023-07-13T11:05:42;20.70;99.90
59282;DHT22;45054;52.062;10.010;2023-07-13T11:08:13;21.00;99.90
59282;DHT22;45054;52.062;10.010;2023-07-13T11:10:46;21.30;99.90
59282;DHT22;45054;52.062;10.010;2023-07-13T11:15:54;21.40;99.90
59282;DHT22;45054;52.062;10.010;2023-07-13T11:18:20;21.50;99.90
59282;DHT22;45054;52.062;10.010;2023-07-13T11:20:46;21.40;99.90
59282;DHT22;45054;52.062;10.010;2023-07-13T11:23:21;21.40;99.90
59282;DHT22;45054;52.062;10.010;2023-07-13T11:25:51;21.50;99.90
59282;DHT22;45054;52.062;10.010;2023-07-13T11:28:18;21.40;99.90
59282;DHT22;45054;52.062;10.010;2023-07-13T11:30:46;21.50;99.90
59282;DHT22;45054;52.062;10.010;2023-07-13T11:33:15;21.50;99.90
59282;DHT22;45054;52.062;10.010;2023-07-13T11:35:43;21.80;99.90
59282;DHT22;45054;52.062;10.010;2023-07-13T11:38:12;22.10;99.90
59282;DHT22;45054;52.062;10.010;2023-07-13T11:40:38;21.90;99.90
59282;DHT22;45054;52.062;10.010;2023-07-13T11:43:04;21.80;99.90
59282;DHT22;45054;52.062;10.010;2023-07-13T11:45:31;21.70;99.90
59282;DHT22;45054;52.062;10.010;2023-07-13T11:47:56;21.70;99.90
59282;DHT22;45054;52.062;10.010;2023-07-13T11:50:24;21.90;99.90
59282;DHT22;45054;52.062;10.010;2023-07-13T11:52:49;22.20;99.90
59282;DHT22;45054;52.062;10.010;2023-07-13T11:55:16;22.30;99.90
59282;DHT22;45054;52.062;10.010;2023-07-13T11:57:44;22.50;99.90
59282;DHT22;45054;52.062;10.010;2023-07-13T12:00:11;22.50;99.90
59282;DHT22;45054;52.062;10.010;2023-07-13T12:02:39;22.40;99.90
59282;DHT22;45054;52.062;10.010;2023-07-13T12:05:05;22.30;99.90
59282;DHT22;45054;52.062;10.010;2023-07-13T12:07:33;22.30;99.90
59282;DHT22;45054;52.062;10.010;2023-07-13T12:10:00;22.10;99.90
59282;DHT22;45054;52.062;10.010;2023-07-13T12:12:28;22.00;99.90
59282;DHT22;45054;52.062;10.010;2023-07-13T12:14:53;22.00;99.90
59282;DHT22;45054;52.062;10.010;2023-07-13T12:17:20;21.90;99.90
59282;DHT22;45054;52.062;10.010;2023-07-13T12:19:46;21.90;99.90
59282;DHT22;45054;52.062;10.010;2023-07-13T12:22:13;21.90;99.90
59282;DHT22;45054;52.062;10.010;2023-07-13T12:24:41;21.80;99.90
59282;DHT22;45054;52.062;10.010;2023-07-13T12:27:13;21.70;99.90
59282;DHT22;45054;52.062;10.010;2023-07-13T12:29:47;21.50;99.90
59282;DHT22;45054;52.062;10.010;2023-07-13T12:32:14;21.50;99.90
59282;DHT22;45054;52.062;10.010;2023-07-13T12:34:51;21.40;99.90
59282;DHT22;45054;52.062;10.010;2023-07-13T12:37:16;21.60;99.90
59282;DHT22;45054;52.062;10.010;2023-07-13T12:39:44;22.00;99.90
59282;DHT22;45054;52.062;10.010;2023-07-13T12:42:16;22.30;99.90
59282;DHT22;45054;52.062;10.010;2023-07-13T12:44:43;22.70;99.90
59282;DHT22;45054;52.062;10.010;2023-07-13T12:47:09;22.90;99.90
59282;DHT22;45054;52.062;10.010;2023-07-13T12:49:39;22.90;99.90
59282;DHT22;45054;52.062;10.010;2023-07-13T12:52:10;22.90;99.90
59282;DHT22;45054;52.062;10.010;2023-07-13T12:54:38;23.00;99.90
59282;DHT22;45054;52.062;10.010;2023-07-13T12:57:07;23.10;99.90
59282;DHT22;45054;52.062;10.010;2023-07-13T12:59:33;23.10;99.90
59282;DHT22;45054;52.062;10.010;2023-07-13T13:01:59;23.30;99.90
59282;DHT22;45054;52.062;10.010;2023-07-13T13:04:24;23.40;99.90
59282;DHT22;45054;52.062;10.010;2023-07-13T13:07:00;23.60;99.90
59282;DHT22;45054;52.062;10.010;2023-07-13T13:09:25;23.40;99.90
59282;DHT22;45054;52.062;10.010;2023-07-13T13:11:51;23.10;99.90
59282;DHT22;45054;52.062;10.010;2023-07-13T13:14:18;23.00;99.90
59282;DHT22;45054;52.062;10.010;2023-07-13T13:16:45;23.00;99.90
59282;DHT22;45054;52.062;10.010;2023-07-13T13:19:12;23.10;99.90
59282;DHT22;45054;52.062;10.010;2023-07-13T13:21:38;23.20;99.90
59282;DHT22;45054;52.062;10.010;2023-07-13T13:24:04;23.20;99.90
59282;DHT22;45054;52.062;10.010;2023-07-13T13:26:34;23.10;99.90
59282;DHT22;45054;52.062;10.010;2023-07-13T13:28:59;22.90;99.90
59282;DHT22;45054;52.062;10.010;2023-07-13T13:31:26;22.90;99.90
59282;DHT22;45054;52.062;10.010;2023-07-13T13:33:52;23.00;99.90
59282;DHT22;45054;52.062;10.010;2023-07-13T13:36:18;23.00;99.90
59282;DHT22;45054;52.062;10.010;2023-07-13T13:38:44;22.90;99.90
59282;DHT22;45054;52.062;10.010;2023-07-13T13:41:10;22.90;99.90
59282;DHT22;45054;52.062;10.010;2023-07-13T13:43:36;22.90;99.90
59282;DHT22;45054;52.062;10.010;2023-07-13T13:46:02;22.80;99.90
59282;DHT22;45054;52.062;10.010;2023-07-13T13:48:30;22.70;99.90
59282;DHT22;45054;52.062;10.010;2023-07-13T13:50:56;22.70;99.90
59282;DHT22;45054;52.062;10.010;2023-07-13T13:53:22;22.80;99.90
59282;DHT22;45054;52.062;10.010;2023-07-13T13:55:47;22.80;99.90
59282;DHT22;45054;52.062;10.010;2023-07-13T13:58:13;22.70;99.90
59282;DHT22;45054;52.062;10.010;2023-07-13T14:00:38;22.70;99.90
59282;DHT22;45054;52.062;10.010;2023-07-13T14:03:04;22.80;99.90
59282;DHT22;45054;52.062;10.010;2023-07-13T14:05:31;22.90;99.90
59282;DHT22;45054;52.062;10.010;2023-07-13T14:07:56;23.00;99.90
59282;DHT22;45054;52.062;10.010;2023-07-13T14:10:22;23.00;99.90
59282;DHT22;45054;52.062;10.010;2023-07-13T14:12:52;22.70;99.90
59282;DHT22;45054;52.062;10.010;2023-07-13T14:15:20;22.60;99.90
59282;DHT22;45054;52.062;10.010;2023-07-13T14:17:45;22.80;99.90
59282;DHT22;45054;52.062;10.010;2023-07-13T14:20:11;23.10;99.90
59282;DHT22;45054;52.062;10.010;2023-07-13T14:22:38;23.60;99.90
59282;DHT22;45054;52.062;10.010;2023-07-13T14:25:04;23.70;99.90
59282;DHT22;45054;52.062;10.010;2023-07-13T14:27:29;23.60;99.90
59282;DHT22;45054;52.062;10.010;2023-07-13T14:29:56;23.20;99.90
59282;DHT22;45054;52.062;10.010;2023-07-13T14:32:21;23.00;99.90
59282;DHT22;45054;52.062;10.010;2023-07-13T14:34:47;22.70;99.90
59282;DHT22;45054;52.062;10.010;2023-07-13T14:37:13;22.70;99.90
59282;DHT22;45054;52.062;10.010;2023-07-13T14:39:40;22.60;99.90
59282;DHT22;45054;52.062;10.010;2023-07-13T14:42:08;22.60;99.90
59282;DHT22;45054;52.062;10.010;2023-07-13T14:44:34;22.50;99.90
59282;DHT22;45054;52.062;10.010;2023-07-13T14:47:00;22.60;99.90
59282;DHT22;45054;52.062;10.010;2023-07-13T14:49:29;22.50;99.90
59282;DHT22;45054;52.062;10.010;2023-07-13T14:51:55;22.00;99.90
59282;DHT22;45054;52.062;10.010;2023-07-13T14:54:22;21.50;99.90
59282;DHT22;45054;52.062;10.010;2023-07-13T14:56:49;21.10;99.90
59282;DHT22;45054;52.062;10.010;2023-07-13T14:59:14;20.70;99.90
59282;DHT22;45054;52.062;10.010;2023-07-13T15:01:40;20.60;99.90
59282;DHT22;45054;52.062;10.010;2023-07-13T15:04:06;20.30;99.90
59282;DHT22;45054;52.062;10.010;2023-07-13T15:06:35;20.00;99.90
59282;DHT22;45054;52.062;10.010;2023-07-13T15:09:17;19.90;99.90
59282;DHT22;45054;52.062;10.010;2023-07-13T15:11:42;19.70;99.90
59282;DHT22;45054;52.062;10.010;2023-07-13T15:14:09;19.70;99.90
59282;DHT22;45054;52.062;10.010;2023-07-13T15:16:37;19.60;99.90